createdAt,value
2018-05-04T00:00:13.641Z,5.93
2018-05-04T00:03:16.195Z,5.33
2018-05-04T00:06:18.677Z,6.07
2018-05-04T00:09:21.097Z,5.90
2018-05-04T00:12:23.681Z,6.00
2018-05-04T00:15:26.155Z,5.80
2018-05-04T00:18:28.707Z,6.23
2018-05-04T00:21:31.235Z,5.00
2018-05-04T00:24:33.695Z,5.70
2018-05-04T00:27:36.284Z,7.03
2018-05-04T00:30:38.724Z,6.10
2018-05-04T00:33:41.209Z,6.23
2018-05-04T00:36:43.716Z,6.03
2018-05-04T00:39:46.175Z,5.63
2018-05-04T00:42:48.641Z,6.00
2018-05-04T00:45:51.106Z,6.13
2018-05-04T00:48:53.546Z,5.67
2018-05-04T00:51:56.041Z,6.00
2018-05-04T00:54:58.565Z,7.00
2018-05-04T00:58:01.005Z,6.83
2018-05-04T01:01:03.559Z,5.90
2018-05-04T01:04:06.011Z,6.40
2018-05-04T01:07:08.491Z,6.73
2018-05-04T01:10:11.037Z,6.40
2018-05-04T01:13:13.501Z,6.57
2018-05-04T01:16:15.987Z,6.43
2018-05-04T01:19:18.461Z,6.33
2018-05-04T01:22:20.905Z,6.50
2018-05-04T01:25:23.426Z,6.07
2018-05-04T01:28:25.854Z,6.20
2018-05-04T01:31:28.361Z,7.03
2018-05-04T01:34:30.926Z,6.40
2018-05-04T01:37:33.354Z,6.20
2018-05-04T01:40:35.826Z,6.40
2018-05-04T01:43:38.271Z,6.03
2018-05-04T01:46:40.768Z,6.50
2018-05-04T01:49:43.310Z,6.97
2018-05-04T01:52:45.817Z,6.20
2018-05-04T01:55:48.297Z,7.40
2018-05-04T01:58:50.731Z,6.80
2018-05-04T02:01:53.200Z,7.33
2018-05-04T02:04:55.743Z,6.77
2018-05-04T02:07:58.218Z,6.30
2018-05-04T02:11:01.909Z,6.70
2018-05-04T02:14:04.398Z,5.83
2018-05-04T02:17:06.917Z,6.40
2018-05-04T02:20:09.357Z,6.77
2018-05-04T02:23:11.827Z,6.70
2018-05-04T02:26:14.297Z,6.47
2018-05-04T02:29:16.757Z,6.93
2018-05-04T02:32:19.226Z,6.47
2018-05-04T02:35:21.778Z,6.70
2018-05-04T02:38:24.265Z,6.40
2018-05-04T02:41:26.748Z,6.60
2018-05-04T02:44:29.284Z,6.77
2018-05-04T02:47:31.838Z,6.03
2018-05-04T02:50:34.310Z,6.40
2018-05-04T02:53:36.775Z,6.10
2018-05-04T02:56:39.211Z,6.03
2018-05-04T02:59:41.704Z,6.80
2018-05-04T03:02:44.169Z,6.40
2018-05-04T03:05:46.753Z,6.30
2018-05-04T03:08:49.357Z,6.23
2018-05-04T03:11:51.827Z,6.37
2018-05-04T03:14:54.303Z,5.80
2018-05-04T03:17:56.757Z,6.27
2018-05-04T03:20:59.205Z,5.93
2018-05-04T03:24:01.691Z,5.87
2018-05-04T03:27:04.192Z,6.10
2018-05-04T03:30:06.792Z,6.90
2018-05-04T03:33:09.265Z,6.23
2018-05-04T03:36:11.729Z,6.80
2018-05-04T03:39:14.187Z,7.07
2018-05-04T03:42:16.679Z,6.90
2018-05-04T03:45:19.128Z,7.00
2018-05-04T03:48:21.798Z,6.53
2018-05-04T03:51:24.282Z,6.60
2018-05-04T03:54:26.781Z,6.50
2018-05-04T03:57:41.108Z,6.30
2018-05-04T04:00:55.482Z,7.10
2018-05-04T04:04:08.810Z,6.53
2018-05-04T04:07:11.325Z,6.60
2018-05-04T04:10:13.872Z,6.60
2018-05-04T04:13:16.409Z,6.17
2018-05-04T04:16:18.843Z,5.53
2018-05-04T04:19:21.318Z,6.50
2018-05-04T04:22:23.804Z,6.57
2018-05-04T04:25:26.264Z,6.10
2018-05-04T04:28:28.749Z,5.80
2018-05-04T04:31:32.128Z,6.70
2018-05-04T04:34:34.724Z,6.83
2018-05-04T04:37:37.235Z,6.73
2018-05-04T04:40:39.749Z,6.57
2018-05-04T04:43:42.209Z,6.63
2018-05-04T04:46:44.703Z,7.00
2018-05-04T04:49:47.189Z,6.50
2018-05-04T04:52:49.853Z,7.40
2018-05-04T04:55:52.315Z,7.13
2018-05-04T04:58:54.873Z,7.53
2018-05-04T05:01:57.349Z,8.07
2018-05-04T05:04:59.863Z,7.87
2018-05-04T05:08:02.294Z,8.13
2018-05-04T05:11:04.770Z,7.17
2018-05-04T05:14:07.259Z,7.60
2018-05-04T05:17:09.696Z,6.80
2018-05-04T05:20:12.209Z,8.33
2018-05-04T05:23:14.664Z,7.47
2018-05-04T05:26:17.241Z,7.97
2018-05-04T05:29:19.730Z,7.17
2018-05-04T05:32:22.226Z,7.37
2018-05-04T05:35:24.670Z,7.73
2018-05-04T05:38:27.167Z,8.00
2018-05-04T05:41:29.734Z,8.50
2018-05-04T05:44:32.185Z,7.90
2018-05-04T05:47:34.676Z,7.87
2018-05-04T05:50:37.151Z,7.00
2018-05-04T05:53:39.631Z,7.70
2018-05-04T05:56:42.068Z,6.33
2018-05-04T05:59:44.631Z,6.23
2018-05-04T06:02:47.178Z,6.20
2018-05-04T06:05:49.600Z,6.53
2018-05-04T06:08:52.122Z,6.67
2018-05-04T06:11:54.602Z,6.60
2018-05-04T06:14:57.205Z,6.47
2018-05-04T06:17:59.683Z,6.30
2018-05-04T06:21:02.184Z,6.63
2018-05-04T06:24:04.589Z,6.80
2018-05-04T06:27:07.055Z,6.30
2018-05-04T06:30:09.536Z,6.67
2018-05-04T06:33:11.995Z,6.53
2018-05-04T06:36:14.538Z,6.40
2018-05-04T06:39:17.041Z,6.20
2018-05-04T06:42:19.525Z,7.07
2018-05-04T06:45:22.000Z,7.00
2018-05-04T06:48:24.536Z,6.77
2018-05-04T06:51:27.089Z,6.90
2018-05-04T06:54:29.560Z,7.30
2018-05-04T06:57:32.021Z,7.07
2018-05-04T07:00:34.531Z,7.57
2018-05-04T07:03:37.008Z,6.70
2018-05-04T07:06:39.553Z,7.57
2018-05-04T07:09:42.119Z,7.50
2018-05-04T07:12:44.680Z,7.27
2018-05-04T07:15:47.176Z,7.70
2018-05-04T07:18:49.641Z,8.20
2018-05-04T07:21:52.051Z,8.20
2018-05-04T07:24:54.530Z,8.10
2018-05-04T07:27:57.084Z,7.70
2018-05-04T07:30:59.645Z,8.30
2018-05-04T07:34:02.098Z,8.70
2018-05-04T07:37:04.553Z,7.83
2018-05-04T07:40:07.023Z,7.50
2018-05-04T07:43:09.484Z,8.00
2018-05-04T07:46:11.973Z,7.77
2018-05-04T07:49:14.513Z,7.80
2018-05-04T07:52:16.993Z,7.70
2018-05-04T07:55:19.483Z,7.47
2018-05-04T07:58:21.993Z,7.87
2018-05-04T08:01:24.438Z,7.03
2018-05-04T08:04:26.931Z,7.90
2018-05-04T08:07:29.387Z,8.90
2018-05-04T08:10:31.937Z,7.63
2018-05-04T08:13:53.682Z,7.10
2018-05-04T08:16:56.229Z,6.70
2018-05-04T08:19:58.900Z,6.10
2018-05-04T08:23:01.341Z,6.90
2018-05-04T08:26:03.883Z,6.07
2018-05-04T08:29:06.337Z,5.17
2018-05-04T08:32:08.826Z,4.37
2018-05-04T08:35:11.363Z,4.43
2018-05-04T08:38:13.741Z,4.97
2018-05-04T08:41:16.224Z,4.17
2018-05-04T08:44:18.680Z,4.60
2018-05-04T08:47:21.155Z,4.83
2018-05-04T08:50:23.595Z,4.67
2018-05-04T08:53:26.100Z,4.97
2018-05-04T08:56:28.605Z,4.40
2018-05-04T08:59:31.146Z,5.00
2018-05-04T09:02:33.610Z,4.97
2018-05-04T09:05:36.193Z,5.03
2018-05-04T09:08:38.565Z,5.63
2018-05-04T09:11:41.011Z,5.10
2018-05-04T09:14:43.506Z,5.07
2018-05-04T09:17:45.955Z,5.47
2018-05-04T09:20:48.426Z,5.30
2018-05-04T09:23:51.112Z,4.87
2018-05-04T09:26:53.516Z,4.97
2018-05-04T09:29:55.991Z,4.80
2018-05-04T09:32:58.467Z,5.10
2018-05-04T09:36:00.936Z,4.50
2018-05-04T09:39:03.420Z,5.60
2018-05-04T09:42:05.892Z,5.17
2018-05-04T09:45:08.503Z,4.77
2018-05-04T09:48:10.997Z,4.60
2018-05-04T09:51:13.521Z,4.63
2018-05-04T09:54:16.022Z,5.53
2018-05-04T09:57:18.511Z,4.13
2018-05-04T10:00:20.981Z,4.83
2018-05-04T10:03:23.468Z,5.17
2018-05-04T10:06:25.966Z,5.40
2018-05-04T10:09:28.453Z,5.70
2018-05-04T10:12:30.983Z,5.67
2018-05-04T10:15:33.423Z,5.60
2018-05-04T10:18:35.886Z,6.00
2018-05-04T10:21:38.329Z,5.80
2018-05-04T10:24:40.852Z,6.50
2018-05-04T10:27:43.312Z,6.47
2018-05-04T10:30:45.793Z,6.30
2018-05-04T10:33:48.287Z,5.80
2018-05-04T10:36:50.734Z,6.37
2018-05-04T10:39:53.229Z,6.60
2018-05-04T10:42:55.714Z,6.57
2018-05-04T10:45:58.248Z,6.80
2018-05-04T10:49:00.707Z,5.93
2018-05-04T10:52:03.208Z,5.80
2018-05-04T10:55:05.686Z,6.20
2018-05-04T10:58:08.143Z,5.67
2018-05-04T11:01:10.623Z,5.70
2018-05-04T11:04:13.363Z,5.33
2018-05-04T11:07:15.808Z,6.53
2018-05-04T11:10:18.289Z,6.47
2018-05-04T11:13:20.757Z,5.97
2018-05-04T11:16:23.242Z,6.03
2018-05-04T11:19:25.811Z,6.67
2018-05-04T11:22:28.328Z,5.87
2018-05-04T11:25:30.905Z,6.00
2018-05-04T11:28:33.292Z,6.67
2018-05-04T11:31:35.852Z,6.90
2018-05-04T11:34:38.292Z,6.23
2018-05-04T11:37:40.829Z,6.30
2018-05-04T11:40:43.312Z,6.87
2018-05-04T11:43:45.787Z,7.00
2018-05-04T11:46:48.268Z,6.30
2018-05-04T11:49:50.756Z,6.70
2018-05-04T11:52:53.285Z,6.63
2018-05-04T11:55:55.761Z,6.80
2018-05-04T11:58:58.268Z,6.47
2018-05-04T12:02:00.790Z,6.13
2018-05-04T12:05:03.220Z,6.00
2018-05-04T12:08:05.708Z,5.90
2018-05-04T12:11:08.138Z,6.00
2018-05-04T12:14:10.613Z,5.90
2018-05-04T12:17:13.108Z,5.87
2018-05-04T12:20:15.634Z,5.87
2018-05-04T12:23:18.254Z,6.97
2018-05-04T12:26:20.837Z,6.90
2018-05-04T12:29:23.274Z,6.40
2018-05-04T12:32:25.743Z,5.87
2018-05-04T12:35:28.193Z,6.83
2018-05-04T12:38:30.738Z,6.70
2018-05-04T12:41:33.164Z,7.00
2018-05-04T12:44:35.640Z,6.60
2018-05-04T12:47:38.065Z,6.43
2018-05-04T12:50:40.543Z,6.30
2018-05-04T12:53:43.020Z,6.43
2018-05-04T12:56:45.540Z,6.77
2018-05-04T12:59:48.010Z,7.20
2018-05-04T13:02:50.508Z,6.27
2018-05-04T13:05:52.980Z,6.40
2018-05-04T13:08:55.572Z,6.50
2018-05-04T13:11:58.037Z,6.30
2018-05-04T13:15:00.543Z,6.53
2018-05-04T13:18:03.109Z,6.77
2018-05-04T13:21:05.583Z,6.40
2018-05-04T13:24:08.111Z,6.53
2018-05-04T13:27:10.643Z,6.40
2018-05-04T13:30:13.100Z,6.17
2018-05-04T13:33:15.575Z,6.40
2018-05-04T13:36:18.068Z,6.40
2018-05-04T13:39:20.505Z,6.20
2018-05-04T13:42:22.994Z,6.30
2018-05-04T13:45:25.507Z,6.00
2018-05-04T13:48:28.034Z,6.50
2018-05-04T13:51:30.640Z,7.67
2018-05-04T13:54:33.057Z,6.67
2018-05-04T13:57:35.525Z,6.43
2018-05-04T14:00:38.036Z,6.80
2018-05-04T14:03:40.542Z,6.07
2018-05-04T14:06:43.058Z,6.60
2018-05-04T14:09:45.656Z,6.47
2018-05-04T14:12:48.240Z,7.40
2018-05-04T14:15:50.728Z,6.70
2018-05-04T14:18:53.248Z,6.50
2018-05-04T14:21:55.779Z,6.70
2018-05-04T14:24:58.363Z,7.03
2018-05-04T14:28:00.800Z,7.53
2018-05-04T14:31:03.442Z,8.10
2018-05-04T14:34:05.956Z,7.30
2018-05-04T14:37:08.421Z,7.10
2018-05-04T14:40:10.976Z,7.63
2018-05-04T14:43:13.444Z,7.60
2018-05-04T14:46:15.975Z,7.70
2018-05-04T14:49:18.441Z,7.17
2018-05-04T14:52:21.027Z,6.57
2018-05-04T14:55:23.544Z,7.33
2018-05-04T14:58:26.016Z,6.70
2018-05-04T15:01:28.538Z,7.30
2018-05-04T15:04:31.052Z,7.23
2018-05-04T15:07:33.630Z,7.40
2018-05-04T15:10:36.246Z,7.43
2018-05-04T15:13:38.730Z,6.97
2018-05-04T15:16:41.244Z,7.57
2018-05-04T15:19:43.709Z,7.23
2018-05-04T15:22:46.220Z,7.63
2018-05-04T15:25:48.765Z,6.43
2018-05-04T15:28:51.285Z,5.93
2018-05-04T15:31:53.797Z,6.13
2018-05-04T15:34:56.301Z,5.73
2018-05-04T15:37:58.797Z,5.80
2018-05-04T15:41:01.305Z,6.03
2018-05-04T15:44:03.796Z,5.60
2018-05-04T15:47:06.312Z,5.27
2018-05-04T15:50:14.275Z,5.20
2018-05-04T15:53:16.735Z,5.30
2018-05-04T15:56:19.300Z,5.07
2018-05-04T15:59:21.849Z,5.40
2018-05-04T16:02:24.431Z,5.30
2018-05-04T16:05:26.978Z,4.97
2018-05-04T16:08:29.455Z,5.00
2018-05-04T16:11:31.948Z,5.87
2018-05-04T16:14:34.450Z,11.00
2018-05-04T16:17:37.541Z,4.33
2018-05-04T16:20:40.110Z,3.87
2018-05-04T16:23:42.609Z,4.57
2018-05-04T16:26:45.107Z,5.80
2018-05-04T16:29:47.595Z,4.77
2018-05-04T16:32:50.135Z,4.30
2018-05-04T16:35:52.601Z,4.87
2018-05-04T16:38:55.186Z,4.83
2018-05-04T16:41:57.688Z,4.80
2018-05-04T16:45:00.193Z,5.00
2018-05-04T16:48:08.156Z,5.70
2018-05-04T16:51:10.607Z,4.10
2018-05-04T16:54:13.056Z,4.70
2018-05-04T16:57:15.605Z,4.43
2018-05-04T17:00:18.114Z,4.40
2018-05-04T17:03:20.610Z,4.30
2018-05-04T17:06:23.055Z,4.07
2018-05-04T17:09:25.578Z,4.10
2018-05-04T17:12:28.080Z,4.57
2018-05-04T17:15:30.582Z,4.40
2018-05-04T17:18:33.040Z,5.10
2018-05-04T17:21:35.535Z,4.30
2018-05-04T17:24:38.007Z,4.80
2018-05-04T17:27:40.433Z,4.40
2018-05-04T17:30:42.897Z,3.90
2018-05-04T17:33:45.394Z,4.00
2018-05-04T17:36:47.950Z,3.80
2018-05-04T17:39:50.601Z,4.60
2018-05-04T17:42:53.135Z,4.27
2018-05-04T17:45:55.647Z,4.50
2018-05-04T17:48:58.118Z,5.00
2018-05-04T17:52:00.647Z,4.97
2018-05-04T17:55:03.237Z,4.13
2018-05-04T17:58:05.731Z,4.20
2018-05-04T18:01:08.222Z,4.87
2018-05-04T18:04:10.750Z,4.80
2018-05-04T18:07:13.186Z,4.83
2018-05-04T18:10:15.959Z,5.00
2018-05-04T18:13:18.409Z,5.70
2018-05-04T18:16:20.892Z,5.20
2018-05-04T18:19:23.448Z,5.10
2018-05-04T18:22:25.916Z,5.43
2018-05-04T18:25:28.560Z,5.30
2018-05-04T18:28:31.087Z,4.87
2018-05-04T18:31:33.687Z,5.10
2018-05-04T18:34:36.179Z,5.00
2018-05-04T18:37:38.663Z,5.10
2018-05-04T18:40:41.196Z,5.20
2018-05-04T18:43:43.732Z,5.17
2018-05-04T18:46:46.377Z,5.60
2018-05-04T18:49:48.841Z,6.17
2018-05-04T18:52:51.458Z,6.37
2018-05-04T18:55:54.004Z,5.53
2018-05-04T18:58:56.507Z,5.50
2018-05-04T19:01:58.992Z,5.40
2018-05-04T19:05:01.503Z,6.17
2018-05-04T19:08:04.001Z,5.50
2018-05-04T19:11:06.483Z,6.60
2018-05-04T19:14:09.052Z,6.03
2018-05-04T19:17:11.563Z,5.90
2018-05-04T19:20:14.057Z,6.70
2018-05-04T19:23:16.558Z,6.20
2018-05-04T19:26:19.082Z,6.23
2018-05-04T19:29:21.584Z,6.20
2018-05-04T19:32:24.119Z,6.07
2018-05-04T19:35:26.668Z,5.80
2018-05-04T19:38:29.237Z,5.67
2018-05-04T19:41:31.688Z,5.50
2018-05-04T19:44:34.329Z,5.90
2018-05-04T19:47:36.831Z,5.73
2018-05-04T19:50:39.336Z,6.00
2018-05-04T19:53:41.823Z,6.37
2018-05-04T19:56:44.411Z,6.30
2018-05-04T19:59:46.915Z,6.87
2018-05-04T20:02:49.375Z,6.90
2018-05-04T20:05:51.906Z,5.97
2018-05-04T20:08:54.420Z,7.27
2018-05-04T20:11:56.959Z,5.50
2018-05-04T20:14:59.438Z,6.50
2018-05-04T20:18:01.958Z,5.93
2018-05-04T20:21:04.480Z,6.23
2018-05-04T20:24:07.021Z,6.53
2018-05-04T20:27:09.558Z,6.20
2018-05-04T20:30:12.065Z,6.10
2018-05-04T20:33:14.629Z,6.40
2018-05-04T20:36:17.123Z,6.40
2018-05-04T20:39:19.704Z,6.70
2018-05-04T20:42:22.333Z,6.57
2018-05-04T20:45:24.799Z,6.40
2018-05-04T20:48:27.369Z,6.90
2018-05-04T20:51:29.863Z,6.50
2018-05-04T20:54:32.394Z,6.53
2018-05-04T20:57:34.881Z,6.03
2018-05-04T21:00:37.413Z,6.83
2018-05-04T21:03:39.906Z,6.43
2018-05-04T21:06:42.390Z,7.03
2018-05-04T21:09:44.863Z,7.30
2018-05-04T21:12:47.345Z,6.60
2018-05-04T21:15:49.896Z,6.80
2018-05-04T21:18:52.371Z,6.50
2018-05-04T21:21:54.875Z,7.20
2018-05-04T21:24:57.394Z,6.80
2018-05-04T21:27:59.856Z,6.47
2018-05-04T21:31:02.411Z,6.93
2018-05-04T21:34:04.925Z,6.30
2018-05-04T21:37:07.460Z,6.40
2018-05-04T21:40:09.913Z,6.03
2018-05-04T21:43:12.412Z,6.20
2018-05-04T21:46:14.876Z,6.00
2018-05-04T21:49:17.390Z,6.60
2018-05-04T21:52:20.004Z,6.37
2018-05-04T21:55:22.487Z,6.17
2018-05-04T21:58:24.934Z,6.53
2018-05-04T22:01:27.425Z,6.27
2018-05-04T22:04:29.904Z,6.13
2018-05-04T22:07:32.469Z,6.53
2018-05-04T22:10:34.958Z,6.03
2018-05-04T22:13:37.405Z,6.00
2018-05-04T22:16:39.889Z,6.00
2018-05-04T22:19:42.415Z,6.50
2018-05-04T22:22:44.927Z,6.50
2018-05-04T22:25:47.403Z,7.30
2018-05-04T22:28:49.894Z,7.37
2018-05-04T22:31:52.378Z,6.50
2018-05-04T22:34:54.922Z,7.13
2018-05-04T22:37:57.394Z,6.90
2018-05-04T22:40:59.939Z,6.37
2018-05-04T22:44:02.447Z,6.80
2018-05-04T22:47:04.959Z,6.63
2018-05-04T22:50:07.408Z,7.17
2018-05-04T22:53:09.899Z,6.57
2018-05-04T22:56:12.450Z,6.90
2018-05-04T22:59:15.048Z,7.07
2018-05-04T23:02:17.563Z,6.23
2018-05-04T23:05:20.130Z,5.70
2018-05-04T23:08:22.601Z,6.27
2018-05-04T23:11:25.072Z,6.93
2018-05-04T23:14:27.575Z,7.23
2018-05-04T23:17:30.085Z,6.30
2018-05-04T23:20:32.500Z,6.83
2018-05-04T23:23:34.973Z,6.50
2018-05-04T23:26:37.466Z,6.40
2018-05-04T23:29:39.926Z,6.10
2018-05-04T23:32:42.411Z,6.10
2018-05-04T23:35:44.904Z,6.97
2018-05-04T23:38:47.344Z,6.87
2018-05-04T23:41:49.791Z,5.80
2018-05-04T23:44:52.211Z,6.10
2018-05-04T23:47:54.714Z,6.50
2018-05-04T23:50:57.141Z,5.80
2018-05-04T23:53:59.621Z,5.83
2018-05-04T23:57:02.174Z,6.47
